sensor_id;sensor_type;location;lat;lon;timestamp;pressure;altitude;pressure_sealevel;temperature;humidity
47430;BME280;33181;49.246;7.372;2023-03-23T00:01:02;98072.00;;;14.20;59.19
47430;BME280;33181;49.246;7.372;2023-03-23T00:03:28;98062.94;;;14.23;59.40
47430;BME280;33181;49.246;7.372;2023-03-23T00:05:55;98072.50;;;14.32;59.00
47430;BME280;33181;49.246;7.372;2023-03-23T00:08:25;98073.16;;;14.34;58.92
47430;BME280;33181;49.246;7.372;2023-03-23T00:10:52;98086.53;;;14.16;59.29
47430;BME280;33181;49.246;7.372;2023-03-23T00:13:26;98080.59;;;14.22;59.74
47430;BME280;33181;49.246;7.372;2023-03-23T00:15:53;98078.44;;;14.26;60.20
47430;BME280;33181;49.246;7.372;2023-03-23T00:18:20;98085.84;;;14.14;60.11
47430;BME280;33181;49.246;7.372;2023-03-23T00:20:55;98081.88;;;14.18;59.97
47430;BME280;33181;49.246;7.372;2023-03-23T00:23:25;98079.75;;;14.13;59.93
47430;BME280;33181;49.246;7.372;2023-03-23T00:25:54;98081.88;;;14.18;59.70
47430;BME280;33181;49.246;7.372;2023-03-23T00:28:25;98078.75;;;14.14;59.50
47430;BME280;33181;49.246;7.372;2023-03-23T00:31:00;98066.03;;;14.18;59.85
47430;BME280;33181;49.246;7.372;2023-03-23T00:33:32;98068.22;;;14.23;59.34
47430;BME280;33181;49.246;7.372;2023-03-23T00:36:13;98074.31;;;14.23;59.47
47430;BME280;33181;49.246;7.372;2023-03-23T00:38:40;98072.00;;;14.20;59.62
47430;BME280;33181;49.246;7.372;2023-03-23T00:41:09;98060.25;;;14.14;59.48
47430;BME280;33181;49.246;7.372;2023-03-23T00:43:37;98056.81;;;14.22;59.41
47430;BME280;33181;49.246;7.372;2023-03-23T00:46:04;98045.59;;;14.20;59.47
47430;BME280;33181;49.246;7.372;2023-03-23T00:48:38;98044.59;;;14.21;59.36
47430;BME280;33181;49.246;7.372;2023-03-23T00:51:11;98035.00;;;14.12;59.53
47430;BME280;33181;49.246;7.372;2023-03-23T00:53:39;98036.19;;;14.26;59.55
47430;BME280;33181;49.246;7.372;2023-03-23T00:56:07;98036.03;;;14.35;59.52
47430;BME280;33181;49.246;7.372;2023-03-23T00:58:33;98030.75;;;14.35;59.14
47430;BME280;33181;49.246;7.372;2023-03-23T01:01:00;98036.50;;;14.39;58.98
47430;BME280;33181;49.246;7.372;2023-03-23T01:03:26;98037.03;;;14.34;59.36
47430;BME280;33181;49.246;7.372;2023-03-23T01:05:54;98040.81;;;14.32;59.40
47430;BME280;33181;49.246;7.372;2023-03-23T01:08:23;98031.75;;;14.34;59.37
47430;BME280;33181;49.246;7.372;2023-03-23T01:10:50;98027.13;;;14.28;59.55
47430;BME280;33181;49.246;7.372;2023-03-23T01:13:16;98025.13;;;14.22;59.52
47430;BME280;33181;49.246;7.372;2023-03-23T01:15:42;98037.66;;;14.12;59.67
47430;BME280;33181;49.246;7.372;2023-03-23T01:18:09;98031.72;;;14.18;59.65
47430;BME280;33181;49.246;7.372;2023-03-23T01:20:36;98005.97;;;14.20;59.74
47430;BME280;33181;49.246;7.372;2023-03-23T01:23:03;98010.25;;;14.21;59.73
47430;BME280;33181;49.246;7.372;2023-03-23T01:25:34;98004.66;;;14.16;59.85
47430;BME280;33181;49.246;7.372;2023-03-23T01:28:01;97991.28;;;14.09;60.00
47430;BME280;33181;49.246;7.372;2023-03-23T01:30:26;97992.25;;;14.08;60.39
47430;BME280;33181;49.246;7.372;2023-03-23T01:32:53;97998.03;;;14.12;60.24
47430;BME280;33181;49.246;7.372;2023-03-23T01:35:20;97993.94;;;14.09;60.41
47430;BME280;33181;49.246;7.372;2023-03-23T01:37:46;97990.94;;;14.04;60.65
47430;BME280;33181;49.246;7.372;2023-03-23T01:40:14;98012.22;;;14.03;60.89
47430;BME280;33181;49.246;7.372;2023-03-23T01:42:39;98003.16;;;14.05;61.04
47430;BME280;33181;49.246;7.372;2023-03-23T01:45:25;98005.97;;;14.04;60.87
47430;BME280;33181;49.246;7.372;2023-03-23T01:53:40;98007.28;;;13.91;61.78
47430;BME280;33181;49.246;7.372;2023-03-23T01:56:09;97989.78;;;13.90;62.20
47430;BME280;33181;49.246;7.372;2023-03-23T01:58:38;97987.97;;;13.99;61.79
47430;BME280;33181;49.246;7.372;2023-03-23T02:01:10;97985.16;;;14.01;61.98
47430;BME280;33181;49.246;7.372;2023-03-23T02:03:41;97979.53;;;13.96;61.94
47430;BME280;33181;49.246;7.372;2023-03-23T02:06:08;97979.22;;;13.99;62.08
47430;BME280;33181;49.246;7.372;2023-03-23T02:08:34;97988.78;;;13.91;62.58
47430;BME280;33181;49.246;7.372;2023-03-23T02:11:01;97982.84;;;13.89;62.71
47430;BME280;33181;49.246;7.372;2023-03-23T02:13:27;97988.44;;;13.86;62.60
47430;BME280;33181;49.246;7.372;2023-03-23T02:22:02;97982.84;;;13.89;62.95
47430;BME280;33181;49.246;7.372;2023-03-23T02:28:16;97976.38;;;13.84;63.13
47430;BME280;33181;49.246;7.372;2023-03-23T02:31:08;97970.31;;;13.75;63.42
47430;BME280;33181;49.246;7.372;2023-03-23T02:33:58;97970.31;;;13.75;63.40
47430;BME280;33181;49.246;7.372;2023-03-23T02:36:45;97965.16;;;13.74;63.76
47430;BME280;33181;49.246;7.372;2023-03-23T02:39:22;97968.00;;;13.72;63.94
47430;BME280;33181;49.246;7.372;2023-03-23T02:42:08;97960.72;;;13.74;63.84
47430;BME280;33181;49.246;7.372;2023-03-23T02:44:41;97962.53;;;13.74;63.89
47430;BME280;33181;49.246;7.372;2023-03-23T02:47:14;97953.81;;;13.81;63.78
47430;BME280;33181;49.246;7.372;2023-03-23T02:49:42;97955.28;;;13.84;63.65
47430;BME280;33181;49.246;7.372;2023-03-23T02:52:19;97945.38;;;13.86;63.69
47430;BME280;33181;49.246;7.372;2023-03-23T02:54:48;97947.22;;;13.94;63.28
47430;BME280;33181;49.246;7.372;2023-03-23T02:57:15;97953.97;;;13.88;63.68
47430;BME280;33181;49.246;7.372;2023-03-23T02:59:41;97957.25;;;13.90;63.75
47430;BME280;33181;49.246;7.372;2023-03-23T03:02:18;97960.22;;;13.87;63.74
47430;BME280;33181;49.246;7.372;2023-03-23T03:10:53;97957.59;;;13.79;64.41
47430;BME280;33181;49.246;7.372;2023-03-23T03:16:26;97956.09;;;13.60;65.28
47430;BME280;33181;49.246;7.372;2023-03-23T03:21:39;97950.66;;;13.70;65.76
47430;BME280;33181;49.246;7.372;2023-03-23T03:24:08;97953.44;;;13.68;66.39
47430;BME280;33181;49.246;7.372;2023-03-23T03:26:40;97958.56;;;13.61;66.95
47430;BME280;33181;49.246;7.372;2023-03-23T03:29:11;97963.19;;;13.67;68.00
47430;BME280;33181;49.246;7.372;2023-03-23T03:31:39;97962.38;;;13.67;68.33
47430;BME280;33181;49.246;7.372;2023-03-23T03:34:11;97956.25;;;13.66;69.37
47430;BME280;33181;49.246;7.372;2023-03-23T03:36:40;97959.91;;;13.65;69.66
47430;BME280;33181;49.246;7.372;2023-03-23T03:39:09;97966.16;;;13.56;70.05
47430;BME280;33181;49.246;7.372;2023-03-23T03:41:36;97971.41;;;13.48;71.03
47430;BME280;33181;49.246;7.372;2023-03-23T03:44:03;97969.06;;;13.45;71.12
47430;BME280;33181;49.246;7.372;2023-03-23T03:46:29;97973.34;;;13.38;71.50
47430;BME280;33181;49.246;7.372;2023-03-23T03:48:57;97978.28;;;13.33;72.26
47430;BME280;33181;49.246;7.372;2023-03-23T03:51:26;97980.59;;;13.36;72.94
47430;BME280;33181;49.246;7.372;2023-03-23T03:53:51;97978.28;;;13.33;73.76
47430;BME280;33181;49.246;7.372;2023-03-23T03:56:17;97979.38;;;13.22;74.99
47430;BME280;33181;49.246;7.372;2023-03-23T03:58:43;97983.00;;;13.21;74.97
47430;BME280;33181;49.246;7.372;2023-03-23T04:01:12;97984.78;;;13.12;75.57
47430;BME280;33181;49.246;7.372;2023-03-23T04:03:39;97989.22;;;13.12;76.07
47430;BME280;33181;49.246;7.372;2023-03-23T04:06:05;97990.88;;;13.13;76.43
47430;BME280;33181;49.246;7.372;2023-03-23T04:08:31;97990.69;;;13.06;76.73
47430;BME280;33181;49.246;7.372;2023-03-23T04:10:58;98004.50;;;13.00;76.84
47430;BME280;33181;49.246;7.372;2023-03-23T04:13:23;98000.22;;;12.99;77.13
47430;BME280;33181;49.246;7.372;2023-03-23T04:15:49;97999.34;;;12.90;77.67
47430;BME280;33181;49.246;7.372;2023-03-23T04:18:17;98005.75;;;12.88;78.23
47430;BME280;33181;49.246;7.372;2023-03-23T04:20:44;98010.88;;;12.89;78.34
47430;BME280;33181;49.246;7.372;2023-03-23T04:23:13;98022.56;;;12.87;79.14
47430;BME280;33181;49.246;7.372;2023-03-23T04:25:39;98024.19;;;12.88;79.15
47430;BME280;33181;49.246;7.372;2023-03-23T04:28:07;98020.56;;;12.89;79.29
47430;BME280;33181;49.246;7.372;2023-03-23T04:30:38;98013.06;;;12.68;79.68
47430;BME280;33181;49.246;7.372;2023-03-23T04:33:04;98007.72;;;12.60;80.53
47430;BME280;33181;49.246;7.372;2023-03-23T04:35:30;98008.41;;;12.62;80.49
47430;BME280;33181;49.246;7.372;2023-03-23T04:37:56;98007.41;;;12.63;81.40
47430;BME280;33181;49.246;7.372;2023-03-23T04:40:24;98012.53;;;12.64;80.97
47430;BME280;33181;49.246;7.372;2023-03-23T04:42:50;98014.13;;;12.57;81.08
47430;BME280;33181;49.246;7.372;2023-03-23T04:45:20;98012.72;;;12.45;81.84
47430;BME280;33181;49.246;7.372;2023-03-23T04:47:49;98023.13;;;12.46;82.07
47430;BME280;33181;49.246;7.372;2023-03-23T04:50:27;98018.34;;;12.50;81.83
47430;BME280;33181;49.246;7.372;2023-03-23T04:52:53;98005.88;;;12.52;82.05
47430;BME280;33181;49.246;7.372;2023-03-23T04:55:25;98003.75;;;12.56;82.09
47430;BME280;33181;49.246;7.372;2023-03-23T04:57:51;98011.78;;;12.54;81.87
47430;BME280;33181;49.246;7.372;2023-03-23T05:00:18;98013.41;;;12.47;82.28
47430;BME280;33181;49.246;7.372;2023-03-23T05:02:47;98005.06;;;12.51;82.10
47430;BME280;33181;49.246;7.372;2023-03-23T05:05:18;98010.56;;;12.40;81.68
47430;BME280;33181;49.246;7.372;2023-03-23T05:07:44;98015.22;;;12.28;83.02
47430;BME280;33181;49.246;7.372;2023-03-23T05:10:12;98016.13;;;12.37;82.76
47430;BME280;33181;49.246;7.372;2023-03-23T05:12:39;98020.09;;;12.41;83.21
47430;BME280;33181;49.246;7.372;2023-03-23T05:15:06;98016.81;;;12.39;83.61
47430;BME280;33181;49.246;7.372;2023-03-23T05:17:33;98022.72;;;12.41;83.86
47430;BME280;33181;49.246;7.372;2023-03-23T05:20:00;98014.19;;;12.39;84.29
47430;BME280;33181;49.246;7.372;2023-03-23T05:22:29;98021.19;;;12.31;85.24
47430;BME280;33181;49.246;7.372;2023-03-23T05:24:59;98011.34;;;12.33;85.25
47430;BME280;33181;49.246;7.372;2023-03-23T05:27:25;98019.75;;;12.36;85.41
47430;BME280;33181;49.246;7.372;2023-03-23T05:29:53;98020.41;;;12.38;85.53
47430;BME280;33181;49.246;7.372;2023-03-23T05:32:19;98025.84;;;12.37;86.21
47430;BME280;33181;49.246;7.372;2023-03-23T05:34:45;98033.06;;;12.35;86.56
47430;BME280;33181;49.246;7.372;2023-03-23T05:37:12;98031.13;;;12.19;87.10
47430;BME280;33181;49.246;7.372;2023-03-23T05:39:39;98033.84;;;12.27;87.15
47430;BME280;33181;49.246;7.372;2023-03-23T05:42:05;98041.44;;;12.30;87.28
47430;BME280;33181;49.246;7.372;2023-03-23T05:44:33;98040.75;;;12.28;87.87
47430;BME280;33181;49.246;7.372;2023-03-23T05:46:58;98043.16;;;12.21;88.31
47430;BME280;33181;49.246;7.372;2023-03-23T05:49:24;98046.09;;;12.18;88.80
47430;BME280;33181;49.246;7.372;2023-03-23T05:51:51;98046.78;;;12.20;88.62
47430;BME280;33181;49.246;7.372;2023-03-23T05:54:18;98046.22;;;12.17;89.18
47430;BME280;33181;49.246;7.372;2023-03-23T05:56:43;98048.59;;;12.02;90.54
47430;BME280;33181;49.246;7.372;2023-03-23T05:59:09;98050.75;;;12.06;90.76
47430;BME280;33181;49.246;7.372;2023-03-23T06:01:36;98056.47;;;12.02;91.10
47430;BME280;33181;49.246;7.372;2023-03-23T06:04:04;98044.03;;;11.94;91.97
47430;BME280;33181;49.246;7.372;2023-03-23T06:06:30;98042.41;;;11.93;91.73
47430;BME280;33181;49.246;7.372;2023-03-23T06:08:58;98050.53;;;12.00;91.40
47430;BME280;33181;49.246;7.372;2023-03-23T06:11:24;98057.31;;;12.02;91.88
47430;BME280;33181;49.246;7.372;2023-03-23T06:13:52;98060.16;;;12.09;91.71
47430;BME280;33181;49.246;7.372;2023-03-23T06:16:18;98065.41;;;12.09;91.73
47430;BME280;33181;49.246;7.372;2023-03-23T06:18:44;98071.50;;;12.10;91.53
47430;BME280;33181;49.246;7.372;2023-03-23T06:21:11;98073.47;;;12.08;91.60
47430;BME280;33181;49.246;7.372;2023-03-23T06:23:38;98078.13;;;11.96;91.57
47430;BME280;33181;49.246;7.372;2023-03-23T06:26:06;98086.56;;;11.99;90.83
47430;BME280;33181;49.246;7.372;2023-03-23T06:28:33;98077.22;;;11.87;90.34
47430;BME280;33181;49.246;7.372;2023-03-23T06:31:05;98094.38;;;11.81;90.49
47430;BME280;33181;49.246;7.372;2023-03-23T06:33:33;98109.78;;;11.86;91.03
47430;BME280;33181;49.246;7.372;2023-03-23T06:36:00;98100.47;;;11.82;91.45
47430;BME280;33181;49.246;7.372;2023-03-23T06:38:26;98091.16;;;11.70;91.37
47430;BME280;33181;49.246;7.372;2023-03-23T06:40:55;98095.50;;;11.79;91.77
47430;BME280;33181;49.246;7.372;2023-03-23T06:43:22;98093.78;;;11.70;91.38
47430;BME280;33181;49.246;7.372;2023-03-23T06:45:49;98108.53;;;11.80;91.62
47430;BME280;33181;49.246;7.372;2023-03-23T06:48:15;98105.50;;;11.75;91.44
47430;BME280;33181;49.246;7.372;2023-03-23T06:50:45;98107.31;;;11.75;91.29
47430;BME280;33181;49.246;7.372;2023-03-23T06:53:12;98106.16;;;11.87;90.77
47430;BME280;33181;49.246;7.372;2023-03-23T06:55:38;98097.66;;;11.93;90.77
47430;BME280;33181;49.246;7.372;2023-03-23T06:58:08;98093.84;;;12.05;91.22
47430;BME280;33181;49.246;7.372;2023-03-23T07:00:34;98092.28;;;12.13;90.74
47430;BME280;33181;49.246;7.372;2023-03-23T07:02:59;98099.22;;;12.14;90.05
47430;BME280;33181;49.246;7.372;2023-03-23T07:05:25;98102.81;;;12.13;90.36
47430;BME280;33181;49.246;7.372;2023-03-23T07:07:51;98099.50;;;12.11;89.98
47430;BME280;33181;49.246;7.372;2023-03-23T07:10:17;98108.44;;;12.00;89.87
47430;BME280;33181;49.246;7.372;2023-03-23T07:12:43;98109.53;;;11.97;90.57
47430;BME280;33181;49.246;7.372;2023-03-23T07:15:10;98122.06;;;11.95;90.36
47430;BME280;33181;49.246;7.372;2023-03-23T07:17:37;98127.22;;;11.87;90.76
47430;BME280;33181;49.246;7.372;2023-03-23T07:20:04;98129.41;;;11.82;91.02
47430;BME280;33181;49.246;7.372;2023-03-23T07:22:31;98134.00;;;11.80;91.56
47430;BME280;33181;49.246;7.372;2023-03-23T07:24:57;98136.47;;;11.81;91.49
47430;BME280;33181;49.246;7.372;2023-03-23T07:27:23;98141.34;;;11.86;91.23
47430;BME280;33181;49.246;7.372;2023-03-23T07:29:48;98134.69;;;11.92;90.68
47430;BME280;33181;49.246;7.372;2023-03-23T07:32:14;98137.00;;;11.95;91.07
47430;BME280;33181;49.246;7.372;2023-03-23T07:34:40;98133.63;;;12.02;90.77
47430;BME280;33181;49.246;7.372;2023-03-23T07:37:07;98135.44;;;12.02;91.45
47430;BME280;33181;49.246;7.372;2023-03-23T07:39:33;98134.38;;;12.13;91.52
47430;BME280;33181;49.246;7.372;2023-03-23T07:41:59;98136.25;;;12.02;89.95
47430;BME280;33181;49.246;7.372;2023-03-23T07:44:25;98136.25;;;12.02;91.11
47430;BME280;33181;49.246;7.372;2023-03-23T07:46:51;98137.72;;;12.15;90.97
47430;BME280;33181;49.246;7.372;2023-03-23T07:49:18;98139.28;;;12.08;90.38
47430;BME280;33181;49.246;7.372;2023-03-23T07:51:45;98140.94;;;12.09;90.89
47430;BME280;33181;49.246;7.372;2023-03-23T07:54:11;98139.34;;;12.16;90.47
47430;BME280;33181;49.246;7.372;2023-03-23T07:56:37;98141.25;;;12.23;91.01
47430;BME280;33181;49.246;7.372;2023-03-23T07:59:06;98151.94;;;12.22;90.44
47430;BME280;33181;49.246;7.372;2023-03-23T08:01:32;98155.16;;;12.16;90.42
47430;BME280;33181;49.246;7.372;2023-03-23T08:03:58;98156.38;;;12.21;89.97
47430;BME280;33181;49.246;7.372;2023-03-23T08:06:26;98166.16;;;12.29;91.53
47430;BME280;33181;49.246;7.372;2023-03-23T08:08:52;98164.56;;;12.18;91.52
47430;BME280;33181;49.246;7.372;2023-03-23T08:11:20;98164.41;;;12.20;91.35
47430;BME280;33181;49.246;7.372;2023-03-23T08:13:46;98177.56;;;12.20;91.62
47430;BME280;33181;49.246;7.372;2023-03-23T08:16:13;98177.56;;;12.20;91.97
47430;BME280;33181;49.246;7.372;2023-03-23T08:18:39;98176.84;;;12.27;91.69
47430;BME280;33181;49.246;7.372;2023-03-23T08:21:06;98182.69;;;12.21;91.90
47430;BME280;33181;49.246;7.372;2023-03-23T08:23:35;98187.72;;;12.15;92.33
47430;BME280;33181;49.246;7.372;2023-03-23T08:26:07;98186.44;;;12.19;92.85
47430;BME280;33181;49.246;7.372;2023-03-23T08:28:35;98199.44;;;12.02;93.37
47430;BME280;33181;49.246;7.372;2023-03-23T08:31:07;98195.47;;;12.16;92.97
47430;BME280;33181;49.246;7.372;2023-03-23T08:33:34;98196.16;;;12.18;93.62
47430;BME280;33181;49.246;7.372;2023-03-23T08:36:00;98204.19;;;12.17;94.67
47430;BME280;33181;49.246;7.372;2023-03-23T08:38:27;98196.91;;;12.11;95.09
47430;BME280;33181;49.246;7.372;2023-03-23T08:41:01;98197.75;;;12.11;95.49
47430;BME280;33181;49.246;7.372;2023-03-23T08:43:28;98213.28;;;12.04;95.83
47430;BME280;33181;49.246;7.372;2023-03-23T08:45:54;98213.38;;;12.13;96.57
47430;BME280;33181;49.246;7.372;2023-03-23T08:48:21;98214.88;;;11.88;96.19
47430;BME280;33181;49.246;7.372;2023-03-23T08:50:49;98214.81;;;11.97;96.66
47430;BME280;33181;49.246;7.372;2023-03-23T08:53:15;98213.03;;;11.98;97.07
47430;BME280;33181;49.246;7.372;2023-03-23T08:55:41;98217.34;;;11.99;97.44
47430;BME280;33181;49.246;7.372;2023-03-23T08:58:08;98220.28;;;11.86;97.17
47430;BME280;33181;49.246;7.372;2023-03-23T09:00:35;98225.03;;;11.73;97.33
47430;BME280;33181;49.246;7.372;2023-03-23T09:03:00;98217.50;;;11.88;97.64
47430;BME280;33181;49.246;7.372;2023-03-23T09:05:28;98222.69;;;11.70;97.19
47430;BME280;33181;49.246;7.372;2023-03-23T09:07:56;98219.03;;;11.80;97.72
47430;BME280;33181;49.246;7.372;2023-03-23T09:10:27;98219.34;;;11.68;97.85
47430;BME280;33181;49.246;7.372;2023-03-23T09:12:58;98222.81;;;11.68;98.68
47430;BME280;33181;49.246;7.372;2023-03-23T09:15:25;98226.41;;;11.77;98.57
47430;BME280;33181;49.246;7.372;2023-03-23T09:17:54;98219.47;;;11.76;99.04
47430;BME280;33181;49.246;7.372;2023-03-23T09:20:24;98232.75;;;11.74;99.54
47430;BME280;33181;49.246;7.372;2023-03-23T09:22:53;98232.06;;;11.92;99.15
47430;BME280;33181;49.246;7.372;2023-03-23T09:25:22;98227.09;;;11.69;100.00
47430;BME280;33181;49.246;7.372;2023-03-23T09:27:54;98220.19;;;11.68;100.00
47430;BME280;33181;49.246;7.372;2023-03-23T09:30:26;98221.53;;;11.72;100.00
47430;BME280;33181;49.246;7.372;2023-03-23T09:32:54;98217.72;;;11.67;100.00
47430;BME280;33181;49.246;7.372;2023-03-23T09:35:20;98223.19;;;11.83;100.00
47430;BME280;33181;49.246;7.372;2023-03-23T09:37:51;98221.66;;;11.90;100.00
47430;BME280;33181;49.246;7.372;2023-03-23T09:40:25;98222.84;;;12.05;100.00
47430;BME280;33181;49.246;7.372;2023-03-23T09:46:35;98220.66;;;11.91;100.00
47430;BME280;33181;49.246;7.372;2023-03-23T09:49:15;98222.59;;;11.99;100.00
47430;BME280;33181;49.246;7.372;2023-03-23T09:51:55;98232.84;;;12.02;100.00
47430;BME280;33181;49.246;7.372;2023-03-23T09:54:46;98224.81;;;11.94;100.00
47430;BME280;33181;49.246;7.372;2023-03-23T10:00:35;98233.59;;;12.12;100.00
47430;BME280;33181;49.246;7.372;2023-03-23T10:03:28;98234.53;;;11.93;100.00
47430;BME280;33181;49.246;7.372;2023-03-23T10:05:56;98235.50;;;11.92;100.00
47430;BME280;33181;49.246;7.372;2023-03-23T10:08:25;98246.03;;;11.92;100.00
47430;BME280;33181;49.246;7.372;2023-03-23T10:19:29;98249.91;;;11.88;100.00
47430;BME280;33181;49.246;7.372;2023-03-23T10:22:04;98251.13;;;11.94;100.00
47430;BME280;33181;49.246;7.372;2023-03-23T10:24:54;98252.94;;;11.83;100.00
47430;BME280;33181;49.246;7.372;2023-03-23T10:30:29;98247.59;;;12.13;100.00
47430;BME280;33181;49.246;7.372;2023-03-23T10:33:20;98244.00;;;12.14;100.00
47430;BME280;33181;49.246;7.372;2023-03-23T10:35:57;98237.28;;;12.01;100.00
47430;BME280;33181;49.246;7.372;2023-03-23T10:38:41;98232.72;;;12.21;100.00
47430;BME280;33181;49.246;7.372;2023-03-23T10:41:16;98227.56;;;12.29;100.00
47430;BME280;33181;49.246;7.372;2023-03-23T10:43:44;98216.34;;;12.27;100.00
47430;BME280;33181;49.246;7.372;2023-03-23T10:49:08;98219.59;;;12.39;100.00
47430;BME280;33181;49.246;7.372;2023-03-23T10:51:42;98219.00;;;12.45;100.00
47430;BME280;33181;49.246;7.372;2023-03-23T10:54:10;98219.38;;;12.50;100.00
47430;BME280;33181;49.246;7.372;2023-03-23T10:56:44;98224.16;;;12.65;100.00
47430;BME280;33181;49.246;7.372;2023-03-23T10:59:25;98231.22;;;12.64;100.00
47430;BME280;33181;49.246;7.372;2023-03-23T11:01:56;98224.16;;;12.65;100.00
47430;BME280;33181;49.246;7.372;2023-03-23T11:04:23;98225.13;;;12.82;100.00
47430;BME280;33181;49.246;7.372;2023-03-23T11:06:52;98229.78;;;12.88;100.00
47430;BME280;33181;49.246;7.372;2023-03-23T11:09:32;98220.75;;;12.90;99.09
47430;BME280;33181;49.246;7.372;2023-03-23T11:11:58;98229.56;;;12.81;99.42
47430;BME280;33181;49.246;7.372;2023-03-23T11:14:31;98221.06;;;12.87;100.00
47430;BME280;33181;49.246;7.372;2023-03-23T11:17:02;98226.03;;;12.90;100.00
47430;BME280;33181;49.246;7.372;2023-03-23T11:19:35;98222.84;;;12.69;100.00
47430;BME280;33181;49.246;7.372;2023-03-23T11:24:54;98228.75;;;12.81;100.00
47430;BME280;33181;49.246;7.372;2023-03-23T11:27:22;98223.75;;;12.95;100.00
47430;BME280;33181;49.246;7.372;2023-03-23T11:29:59;98228.97;;;12.87;99.85
47430;BME280;33181;49.246;7.372;2023-03-23T11:32:29;98220.38;;;13.03;100.00
47430;BME280;33181;49.246;7.372;2023-03-23T11:35:01;98215.19;;;12.93;100.00
47430;BME280;33181;49.246;7.372;2023-03-23T11:37:39;98208.88;;;12.86;100.00
47430;BME280;33181;49.246;7.372;2023-03-23T11:42:42;98204.25;;;12.88;100.00
47430;BME280;33181;49.246;7.372;2023-03-23T11:45:19;98203.13;;;12.91;100.00
47430;BME280;33181;49.246;7.372;2023-03-23T11:50:31;98213.44;;;12.84;100.00
47430;BME280;33181;49.246;7.372;2023-03-23T11:53:20;98212.25;;;12.79;100.00
47430;BME280;33181;49.246;7.372;2023-03-23T11:56:15;98218.03;;;12.82;100.00
47430;BME280;33181;49.246;7.372;2023-03-23T11:58:45;98215.63;;;12.89;100.00
47430;BME280;33181;49.246;7.372;2023-03-23T12:10:13;98212.03;;;12.72;97.81
47430;BME280;33181;49.246;7.372;2023-03-23T12:13:12;98209.78;;;12.77;97.89
47430;BME280;33181;49.246;7.372;2023-03-23T12:19:48;98216.16;;;12.57;96.56
47430;BME280;33181;49.246;7.372;2023-03-23T12:24:54;98189.06;;;12.64;97.08
47430;BME280;33181;49.246;7.372;2023-03-23T12:27:41;98172.34;;;12.56;97.65
47430;BME280;33181;49.246;7.372;2023-03-23T12:30:47;98156.97;;;12.87;98.68
47430;BME280;33181;49.246;7.372;2023-03-23T12:44:53;98164.25;;;13.71;94.87
47430;BME280;33181;49.246;7.372;2023-03-23T12:47:42;98160.81;;;13.71;92.81
47430;BME280;33181;49.246;7.372;2023-03-23T12:50:21;98166.63;;;13.82;91.06
47430;BME280;33181;49.246;7.372;2023-03-23T12:53:09;98157.03;;;13.73;91.61
47430;BME280;33181;49.246;7.372;2023-03-23T12:59:17;98139.97;;;13.59;90.00
47430;BME280;33181;49.246;7.372;2023-03-23T13:01:51;98145.69;;;13.47;89.62
47430;BME280;33181;49.246;7.372;2023-03-23T13:04:27;98151.47;;;13.50;90.94
47430;BME280;33181;49.246;7.372;2023-03-23T13:06:57;98131.06;;;13.60;90.08
47430;BME280;33181;49.246;7.372;2023-03-23T13:09:55;98149.06;;;13.65;88.82
47430;BME280;33181;49.246;7.372;2023-03-23T13:12:24;98150.88;;;13.64;87.38
47430;BME280;33181;49.246;7.372;2023-03-23T13:15:03;98156.00;;;13.66;87.33
47430;BME280;33181;49.246;7.372;2023-03-23T13:17:49;98141.44;;;13.54;86.72
47430;BME280;33181;49.246;7.372;2023-03-23T13:20:55;98146.09;;;13.60;87.41
47430;BME280;33181;49.246;7.372;2023-03-23T13:23:40;98141.31;;;13.63;87.70
47430;BME280;33181;49.246;7.372;2023-03-23T13:26:14;98146.31;;;13.75;86.83
47430;BME280;33181;49.246;7.372;2023-03-23T13:31:35;98143.50;;;13.76;85.82
47430;BME280;33181;49.246;7.372;2023-03-23T13:37:05;98151.06;;;13.63;86.42
47430;BME280;33181;49.246;7.372;2023-03-23T13:39:47;98148.88;;;13.58;86.84
47430;BME280;33181;49.246;7.372;2023-03-23T13:49:59;98154.47;;;13.29;87.17
47430;BME280;33181;49.246;7.372;2023-03-23T13:52:52;98147.97;;;12.97;88.48
47430;BME280;33181;49.246;7.372;2023-03-23T14:03:26;98147.09;;;12.89;89.29
47430;BME280;33181;49.246;7.372;2023-03-23T14:11:01;98146.16;;;12.72;89.60
47430;BME280;33181;49.246;7.372;2023-03-23T14:16:22;98133.38;;;12.85;88.97
47430;BME280;33181;49.246;7.372;2023-03-23T14:19:27;98129.69;;;12.96;88.67
47430;BME280;33181;49.246;7.372;2023-03-23T14:22:00;98125.56;;;12.93;88.13
47430;BME280;33181;49.246;7.372;2023-03-23T14:24:40;98133.38;;;13.03;87.63
47430;BME280;33181;49.246;7.372;2023-03-23T14:27:14;98141.38;;;12.93;88.32
47430;BME280;33181;49.246;7.372;2023-03-23T14:29:40;98138.16;;;13.08;88.01
47430;BME280;33181;49.246;7.372;2023-03-23T14:32:13;98145.63;;;13.12;87.68
47430;BME280;33181;49.246;7.372;2023-03-23T14:34:39;98148.72;;;13.08;88.22
47430;BME280;33181;49.246;7.372;2023-03-23T14:37:12;98149.31;;;13.02;87.95
47430;BME280;33181;49.246;7.372;2023-03-23T14:39:38;98139.97;;;13.07;88.17
47430;BME280;33181;49.246;7.372;2023-03-23T14:42:11;98137.81;;;13.03;88.62
47430;BME280;33181;49.246;7.372;2023-03-23T14:44:42;98145.25;;;13.07;88.79
47430;BME280;33181;49.246;7.372;2023-03-23T14:47:35;98138.78;;;13.02;88.45
47430;BME280;33181;49.246;7.372;2023-03-23T14:50:23;98141.78;;;13.07;88.95
47430;BME280;33181;49.246;7.372;2023-03-23T14:52:49;98138.53;;;13.13;87.78
47430;BME280;33181;49.246;7.372;2023-03-23T14:55:21;98149.38;;;13.10;88.48
47430;BME280;33181;49.246;7.372;2023-03-23T14:57:48;98141.38;;;13.19;87.43
47430;BME280;33181;49.246;7.372;2023-03-23T15:00:23;98138.16;;;13.26;86.97
47430;BME280;33181;49.246;7.372;2023-03-23T15:02:54;98147.34;;;13.21;86.78
47430;BME280;33181;49.246;7.372;2023-03-23T15:05:31;98135.72;;;13.32;86.84
47430;BME280;33181;49.246;7.372;2023-03-23T15:08:22;98139.66;;;13.28;86.40
47430;BME280;33181;49.246;7.372;2023-03-23T15:11:02;98140.31;;;13.30;86.38
47430;BME280;33181;49.246;7.372;2023-03-23T15:13:29;98133.88;;;13.25;86.67